Time;durP1;ratioP1;P1;durP2;ratioP2;P2;SDS_P1;SDS_P2;PMS_P1;PMS_P2;Temp;Humidity;BMP_temperature;BMP_pressure;BME280_temperature;BME280_humidity;BME280_pressure;Samples;Min_cycle;Max_cycle;Signal;HPM_P1;HPM_P2
2022/05/16 00:00:30;;;;;;;0.10;0.10;;;;;;;22.14;41.85;101039.06;5113687;28;20440;-30
2022/05/16 00:02:57;;;;;;;0.10;0.10;;;;;;;22.14;41.96;101039.06;5114012;28;20062;-30
2022/05/16 00:05:23;;;;;;;0.10;0.10;;;;;;;22.13;42.00;101034.63;5118241;28;20535;-30
2022/05/16 00:07:48;;;;;;;0.10;0.10;;;;;;;22.13;42.06;101035.47;5114369;28;20090;-30
2022/05/16 00:10:15;;;;;;;0.10;0.10;;;;;;;22.14;41.89;101045.41;5111878;28;20470;-31
2022/05/16 00:12:41;;;;;;;0.10;0.10;;;;;;;22.15;41.86;101038.78;5095958;28;20077;-28
2022/05/16 00:15:09;;;;;;;0.10;0.10;;;;;;;22.13;42.00;101037.41;5088543;28;20039;-30
2022/05/16 00:17:35;;;;;;;0.10;0.10;;;;;;;22.13;41.84;101035.47;5114715;28;20043;-30
2022/05/16 00:20:00;;;;;;;0.10;0.10;;;;;;;22.12;41.98;101031.03;5094583;28;20144;-30
2022/05/16 00:22:27;;;;;;;0.10;0.10;;;;;;;22.13;41.94;101032.69;5112380;28;20415;-30
2022/05/16 00:24:53;;;;;;;0.10;0.10;;;;;;;22.13;42.04;101032.69;5113983;28;20082;-30
2022/05/16 00:27:19;;;;;;;0.10;0.10;;;;;;;22.13;41.93;101029.91;5113543;28;20051;-30
2022/05/16 00:29:44;;;;;;;0.10;0.10;;;;;;;22.14;42.02;101028.78;5110907;28;20397;-30
2022/05/16 00:32:10;;;;;;;0.10;0.10;;;;;;;22.13;42.04;101035.47;5112022;28;20042;-30
2022/05/16 00:34:36;;;;;;;0.10;0.10;;;;;;;22.14;41.97;101023.22;5093994;28;20142;-30
2022/05/16 00:37:02;;;;;;;0.10;0.10;;;;;;;22.12;41.89;101019.94;5112961;28;20192;-30
2022/05/16 00:39:28;;;;;;;0.10;0.10;;;;;;;22.14;41.84;101020.44;5095950;28;20075;-29
2022/05/16 00:41:54;;;;;;;0.10;0.10;;;;;;;22.14;42.02;101011.31;5110713;28;20097;-30
2022/05/16 00:44:21;;;;;;;0.10;0.10;;;;;;;22.14;41.89;101012.13;5114807;28;20462;-30
2022/05/16 00:46:48;;;;;;;0.10;0.10;;;;;;;22.14;41.93;101014.09;5116045;28;20043;-30
2022/05/16 00:49:32;;;;;;;0.10;0.10;;;;;;;22.14;41.95;101012.13;5110592;28;20126;-30
2022/05/16 00:52:02;;;;;;;0.10;0.10;;;;;;;22.13;42.00;101010.50;5111125;28;20389;-29
2022/05/16 00:54:31;;;;;;;0.10;0.10;;;;;;;22.13;41.97;101004.13;5114490;28;20478;-30
2022/05/16 00:57:02;;;;;;;0.10;0.10;;;;;;;22.14;42.03;101016.88;5113832;28;20812;-29
2022/05/16 00:59:33;;;;;;;0.10;0.10;;;;;;;22.13;41.93;101007.72;5113845;28;20489;-30
2022/05/16 01:04:48;;;;;;;0.10;0.10;;;;;;;22.12;41.94;100997.75;5099099;28;20485;-31
2022/05/16 01:07:16;;;;;;;0.10;0.10;;;;;;;22.13;42.01;101001.34;5110398;28;20486;-30
2022/05/16 01:09:41;;;;;;;0.10;0.10;;;;;;;22.14;42.00;100997.44;5115614;28;20075;-30
2022/05/16 01:12:07;;;;;;;0.10;0.10;;;;;;;22.14;41.97;101003.00;5113818;28;20043;-29
2022/05/16 01:14:54;;;;;;;0.10;0.10;;;;;;;22.13;42.00;100991.06;5113038;28;20098;-30
2022/05/16 01:17:20;;;;;;;0.10;0.10;;;;;;;22.14;42.13;101003.81;5099859;28;20082;-29
2022/05/16 01:19:47;;;;;;;0.10;0.10;;;;;;;22.13;41.94;101001.34;5091420;28;20402;-29
2022/05/16 01:22:20;;;;;;;0.10;0.10;;;;;;;22.12;42.05;101000.53;5096368;28;20085;-30
2022/05/16 01:24:46;;;;;;;0.10;0.10;;;;;;;22.13;41.97;100999.41;5121168;28;20072;-29
2022/05/16 01:27:11;;;;;;;0.10;0.10;;;;;;;22.13;41.97;101004.13;5117012;28;20043;-30
2022/05/16 01:29:37;;;;;;;0.10;0.10;;;;;;;22.12;42.10;101000.53;5118186;28;20043;-29
2022/05/16 01:32:03;;;;;;;0.10;0.10;;;;;;;22.13;41.97;101002.16;5111539;28;20035;-31
2022/05/16 01:34:29;;;;;;;0.10;0.10;;;;;;;22.13;42.01;100999.41;5113653;28;20078;-31
2022/05/16 01:36:54;;;;;;;0.10;0.10;;;;;;;22.14;42.18;101000.22;5117310;28;20047;-30
2022/05/16 01:39:20;;;;;;;0.00;0.00;;;;;;;22.14;42.03;101000.22;5120206;28;20047;-31
2022/05/16 01:41:46;;;;;;;0.10;0.10;;;;;;;22.13;41.98;100995.81;5119495;28;20058;-30
2022/05/16 01:44:12;;;;;;;0.10;0.10;;;;;;;22.13;42.01;100996.63;5112156;28;20433;-30
2022/05/16 01:46:40;;;;;;;0.10;0.10;;;;;;;22.13;42.00;100998.56;5109885;28;20138;-30
2022/05/16 01:49:07;;;;;;;;;;;;;;;22.14;42.02;100994.66;5109086;28;20046;-30
2022/05/16 01:51:33;;;;;;;0.10;0.10;;;;;;;22.14;42.04;100991.91;5121364;28;19970;-30
2022/05/16 01:53:59;;;;;;;0.10;0.10;;;;;;;22.12;41.96;100992.22;5116506;28;20044;-29
2022/05/16 01:56:25;;;;;;;0.10;0.10;;;;;;;22.13;42.00;100987.47;5118258;28;20123;-30
2022/05/16 01:58:50;;;;;;;0.10;0.10;;;;;;;22.14;42.02;100989.13;5115791;28;20055;-29
2022/05/16 02:01:16;;;;;;;0.10;0.10;;;;;;;22.14;42.00;100986.34;5119637;28;20087;-30
2022/05/16 02:03:44;;;;;;;0.10;0.10;;;;;;;22.14;41.86;100984.41;5115522;28;20073;-31
2022/05/16 02:06:10;;;;;;;0.10;0.10;;;;;;;22.14;42.01;100981.63;5119532;28;20138;-29
2022/05/16 02:08:37;;;;;;;0.10;0.10;;;;;;;22.14;42.00;100978.03;5115098;28;20093;-30
2022/05/16 02:11:03;;;;;;;0.10;0.10;;;;;;;22.14;42.04;100978.03;5101221;28;20181;-30
2022/05/16 02:13:29;;;;;;;0.10;0.10;;;;;;;22.14;42.04;100973.31;5097125;28;20134;-29
2022/05/16 02:15:55;;;;;;;0.10;0.10;;;;;;;22.14;42.03;100972.47;5114176;28;20150;-31
2022/05/16 02:18:21;;;;;;;0.10;0.10;;;;;;;22.13;42.00;100963.34;5113704;28;20048;-29
2022/05/16 02:20:47;;;;;;;0.10;0.10;;;;;;;22.13;41.92;100960.56;5118754;28;20129;-30
2022/05/16 02:25:58;;;;;;;0.10;0.10;;;;;;;22.13;41.96;100957.78;5087865;28;20646;-31
2022/05/16 02:28:25;;;;;;;0.10;0.10;;;;;;;22.14;42.06;100958.63;5116805;28;20050;-29
2022/05/16 02:30:52;;;;;;;0.10;0.10;;;;;;;22.13;42.02;100949.47;5120320;28;20098;-30
2022/05/16 02:33:18;;;;;;;0.10;0.10;;;;;;;22.14;42.02;100951.13;5114578;28;20240;-29
2022/05/16 02:35:45;;;;;;;0.10;0.10;;;;;;;22.14;42.01;100939.19;5114783;28;20075;-29
2022/05/16 02:38:12;;;;;;;0.10;0.10;;;;;;;22.14;42.03;100942.78;5114672;28;20455;-30
2022/05/16 02:40:38;;;;;;;0.10;0.10;;;;;;;22.14;41.92;100936.44;5118672;28;20074;-30
2022/05/16 02:43:04;;;;;;;0.10;0.10;;;;;;;22.13;41.97;100932.81;5096699;28;20138;-30
2022/05/16 02:45:31;;;;;;;0.10;0.10;;;;;;;22.13;41.97;100935.59;5099077;28;20071;-29
2022/05/16 02:47:56;;;;;;;0.10;0.10;;;;;;;22.14;41.95;100936.44;5113116;28;20172;-30
2022/05/16 02:50:23;;;;;;;0.10;0.10;;;;;;;22.15;42.01;100927.81;5105765;28;20077;-30
2022/05/16 02:52:51;;;;;;;0.10;0.10;;;;;;;22.15;42.04;100935.28;5114480;28;21353;-29
2022/05/16 02:55:16;;;;;;;0.10;0.10;;;;;;;22.13;41.96;100927.28;5118632;28;20079;-29
2022/05/16 02:57:43;;;;;;;0.10;0.10;;;;;;;22.13;42.03;100938.38;5118645;28;20047;-29
2022/05/16 03:00:09;;;;;;;0.10;0.10;;;;;;;22.14;41.97;100936.44;5122417;28;20092;-31
2022/05/16 03:02:36;;;;;;;0.10;0.10;;;;;;;22.14;42.05;100934.47;5116433;28;20054;-30
2022/05/16 03:05:03;;;;;;;0.10;0.10;;;;;;;22.14;42.02;100930.88;5116497;28;20456;-31
2022/05/16 03:07:29;;;;;;;0.10;0.10;;;;;;;22.14;42.12;100940.00;5097058;28;20533;-30
2022/05/16 03:09:54;;;;;;;0.10;0.10;;;;;;;22.14;42.10;100939.19;5117411;28;20057;-30
2022/05/16 03:12:20;;;;;;;0.10;0.10;;;;;;;22.14;42.05;100936.44;5114383;28;20489;-31
2022/05/16 03:14:46;;;;;;;0.10;0.10;;;;;;;22.13;41.97;100930.06;5114457;28;20048;-30
2022/05/16 03:17:12;;;;;;;0.10;0.10;;;;;;;22.14;42.11;100930.88;5095517;28;20051;-30
2022/05/16 03:19:37;;;;;;;0.10;0.10;;;;;;;22.15;41.93;100922.28;5119102;28;20066;-29
2022/05/16 03:22:04;;;;;;;0.10;0.10;;;;;;;22.14;42.05;100926.16;5114382;28;20441;-29
2022/05/16 03:24:31;;;;;;;0.10;0.10;;;;;;;22.13;42.02;100921.72;5118974;28;20458;-30
2022/05/16 03:26:58;;;;;;;0.10;0.10;;;;;;;22.13;42.03;100929.25;5116261;28;20199;-31
2022/05/16 03:29:24;;;;;;;0.10;0.10;;;;;;;22.13;42.02;100924.50;5117189;28;20075;-29
2022/05/16 03:31:50;;;;;;;0.10;0.10;;;;;;;22.14;42.10;100930.88;5112345;28;20073;-30
2022/05/16 03:34:15;;;;;;;0.10;0.10;;;;;;;22.14;42.04;100925.34;5111370;28;20052;-30
2022/05/16 03:36:41;;;;;;;0.10;0.10;;;;;;;22.13;42.03;100923.69;5117211;28;20043;-30
2022/05/16 03:41:52;;;;;;;0.10;0.10;;;;;;;22.14;42.06;100917.00;5097405;28;20505;-31
2022/05/16 03:44:19;;;;;;;0.10;0.10;;;;;;;22.13;42.06;100930.06;5117633;27;20039;-30
2022/05/16 03:46:45;;;;;;;0.10;0.10;;;;;;;22.13;42.02;100938.38;5111940;28;20081;-30
2022/05/16 03:49:10;;;;;;;0.10;0.10;;;;;;;22.13;42.08;100924.50;5116301;28;20075;-30
2022/05/16 03:51:37;;;;;;;0.10;0.10;;;;;;;22.14;42.00;100922.56;5116778;28;20043;-30
2022/05/16 03:54:03;;;;;;;0.10;0.10;;;;;;;22.14;42.09;100925.34;5100063;28;20468;-30
2022/05/16 03:56:29;;;;;;;0.10;0.10;;;;;;;22.14;41.96;100914.22;5117022;28;20139;-30
2022/05/16 03:58:55;;;;;;;0.10;0.10;;;;;;;22.14;42.02;100903.13;5110917;28;20047;-30
2022/05/16 04:01:22;;;;;;;0.10;0.10;;;;;;;22.13;42.01;100905.09;5113471;28;20071;-30
2022/05/16 04:03:48;;;;;;;0.10;0.10;;;;;;;22.13;42.01;100916.19;5113536;28;20039;-31
2022/05/16 04:06:14;;;;;;;0.10;0.10;;;;;;;22.13;42.02;100916.19;5117976;28;20128;-31
2022/05/16 04:08:42;;;;;;;0.10;0.10;;;;;;;22.13;42.11;100918.97;5112933;28;20047;-30
2022/05/16 04:11:08;;;;;;;0.10;0.10;;;;;;;22.13;42.10;100918.13;5119574;28;20105;-30
2022/05/16 04:13:34;;;;;;;0.10;0.10;;;;;;;22.13;42.01;100912.59;5095688;28;20073;-29
2022/05/16 04:16:00;;;;;;;0.10;0.10;;;;;;;22.14;42.09;100905.91;5094886;28;20161;-31
2022/05/16 04:18:32;;;;;;;0.10;0.10;;;;;;;22.14;42.00;100900.38;5114296;28;20039;-30
2022/05/16 04:20:58;;;;;;;0.10;0.10;;;;;;;22.13;42.11;100912.59;5115862;28;20134;-30
2022/05/16 04:23:24;;;;;;;0.10;0.10;;;;;;;22.13;42.04;100901.50;5113176;28;20047;-30
2022/05/16 04:25:49;;;;;;;0.10;0.10;;;;;;;22.13;42.03;100910.63;5119717;28;20151;-31
2022/05/16 04:28:15;;;;;;;0.10;0.10;;;;;;;22.14;42.05;100917.00;5113141;28;20062;-31
2022/05/16 04:30:41;;;;;;;0.10;0.10;;;;;;;22.13;42.02;100907.03;5112975;28;21154;-30
2022/05/16 04:33:07;;;;;;;0.10;0.10;;;;;;;22.13;42.05;100909.81;5115265;28;20134;-32
2022/05/16 04:35:33;;;;;;;0.10;0.10;;;;;;;22.14;41.96;100915.06;5112987;28;20043;-30
2022/05/16 04:37:59;;;;;;;0.10;0.10;;;;;;;22.14;41.96;100917.81;5118235;28;20071;-30
2022/05/16 04:40:25;;;;;;;0.10;0.10;;;;;;;22.14;42.04;100923.38;5112539;28;20073;-30
2022/05/16 04:42:50;;;;;;;0.10;0.10;;;;;;;22.14;41.94;100917.00;5116253;28;20058;-30
2022/05/16 04:45:23;;;;;;;0.10;0.10;;;;;;;22.14;42.10;100923.38;5117963;28;20143;-30
2022/05/16 04:47:51;;;;;;;0.10;0.10;;;;;;;22.14;41.92;100914.22;5110288;28;20070;-29
2022/05/16 04:50:20;;;;;;;0.10;0.10;;;;;;;22.14;41.96;100914.22;5114250;28;20067;-30
2022/05/16 04:52:46;;;;;;;0.10;0.10;;;;;;;22.13;42.09;100910.63;5092740;28;20138;-29
2022/05/16 04:55:12;;;;;;;0.10;0.10;;;;;;;22.13;42.04;100902.31;5115221;28;20078;-32
2022/05/16 04:57:38;;;;;;;0.10;0.10;;;;;;;22.14;42.03;100909.50;5098503;28;20130;-33
2022/05/16 05:00:05;;;;;;;0.10;0.10;;;;;;;22.14;42.00;100905.91;5121590;28;20134;-29
2022/05/16 05:02:31;;;;;;;0.10;0.10;;;;;;;22.14;41.80;100914.22;5112772;28;20039;-30
2022/05/16 05:04:58;;;;;;;0.10;0.10;;;;;;;22.14;42.10;100908.69;5118719;28;20443;-30
2022/05/16 05:07:24;;;;;;;0.10;0.10;;;;;;;22.14;42.14;100920.59;5115147;28;20481;-30
2022/05/16 05:15:21;;;;;;;0.10;0.10;;;;;;;22.14;42.11;100928.91;5104853;28;20129;-29
2022/05/16 05:17:47;;;;;;;0.20;0.20;;;;;;;22.15;41.97;100929.75;5108568;28;20449;-29
2022/05/16 05:20:14;;;;;;;0.10;0.10;;;;;;;22.14;41.98;100933.66;5112496;28;20043;-31
2022/05/16 05:22:45;;;;;;;0.10;0.10;;;;;;;22.14;42.02;100930.88;5116784;28;20075;-31
2022/05/16 05:25:13;;;;;;;0.10;0.10;;;;;;;22.14;42.10;100926.16;5118075;28;20083;-29
2022/05/16 05:27:40;;;;;;;0.10;0.10;;;;;;;22.15;42.10;100927.81;5096068;28;20039;-30
2022/05/16 05:30:07;;;;;;;0.10;0.10;;;;;;;22.14;42.11;100936.44;5115294;28;20534;-30
2022/05/16 05:32:33;;;;;;;0.10;0.10;;;;;;;22.15;42.05;100946.38;5094933;28;20125;-30
2022/05/16 05:34:59;;;;;;;0.10;0.10;;;;;;;22.14;41.99;100942.78;5110255;28;20375;-29
2022/05/16 05:37:24;;;;;;;0.10;0.10;;;;;;;22.14;42.09;100940.00;5111017;28;20039;-30
2022/05/16 05:39:50;;;;;;;0.10;0.10;;;;;;;22.15;41.99;100943.63;5101527;28;20039;-31
2022/05/16 05:42:16;;;;;;;0.10;0.10;;;;;;;21.89;42.06;100940.34;5113406;28;20044;-32
2022/05/16 05:44:41;;;;;;;0.10;0.10;;;;;;;22.05;42.38;100942.63;5118572;28;20111;-29
2022/05/16 05:47:07;;;;;;;0.10;0.10;;;;;;;21.93;42.56;100945.00;5108867;28;20494;-28
2022/05/16 05:49:33;;;;;;;0.10;0.10;;;;;;;22.02;42.79;100940.47;5109518;28;20035;-29
2022/05/16 05:51:59;;;;;;;0.10;0.10;;;;;;;21.97;42.47;100945.22;5108775;28;20048;-30
2022/05/16 05:54:24;;;;;;;0.10;0.10;;;;;;;22.12;42.72;100958.94;5112289;28;20415;-30
2022/05/16 05:56:50;;;;;;;0.10;0.10;;;;;;;22.21;42.40;100959.06;5107664;28;20039;-30
2022/05/16 05:59:16;;;;;;;0.10;0.10;;;;;;;22.24;42.30;100958.47;5113364;28;20055;-31
2022/05/16 06:01:41;;;;;;;0.10;0.10;;;;;;;22.27;42.27;100952.31;5114073;28;20448;-30
2022/05/16 06:04:07;;;;;;;0.10;0.10;;;;;;;22.28;42.28;100954.81;5107855;28;20043;-30
2022/05/16 06:06:33;;;;;;;0.10;0.10;;;;;;;22.31;41.99;100950.56;5106671;28;20493;-31
2022/05/16 06:08:59;;;;;;;0.10;0.10;;;;;;;22.33;41.96;100944.75;5108280;28;20519;-29
2022/05/16 06:11:28;;;;;;;0.10;0.10;;;;;;;22.32;42.05;100952.22;5109669;28;20040;-30
2022/05/16 06:13:55;;;;;;;0.10;0.10;;;;;;;22.34;42.01;100949.16;5112005;28;20079;-30
2022/05/16 06:16:21;;;;;;;0.10;0.10;;;;;;;22.42;42.35;100943.75;5108713;28;20181;-45
2022/05/16 06:18:46;;;;;;;0.10;0.10;;;;;;;22.54;42.45;100949.66;5107018;28;20040;-30
2022/05/16 06:21:12;;;;;;;0.10;0.10;;;;;;;22.53;42.49;100948.00;5113126;28;20044;-30
2022/05/16 06:23:38;;;;;;;0.10;0.10;;;;;;;22.49;42.36;100948.91;5115973;28;20047;-29
2022/05/16 06:26:03;;;;;;;0.10;0.10;;;;;;;22.47;42.47;100951.16;5111114;28;20440;-31
2022/05/16 06:28:32;;;;;;;0.10;0.10;;;;;;;22.47;42.35;100948.41;5112517;28;20058;-30
2022/05/16 06:30:58;;;;;;;0.10;0.10;;;;;;;22.47;42.30;100952.00;5117426;28;20082;-30
2022/05/16 06:33:28;;;;;;;0.10;0.10;;;;;;;22.48;42.29;100953.63;5114657;28;20039;-31
2022/05/16 06:35:54;;;;;;;0.10;0.10;;;;;;;22.48;42.34;100967.50;5115150;28;20130;-32
2022/05/16 06:38:25;;;;;;;0.10;0.10;;;;;;;22.49;42.23;100982.19;5112637;28;20087;-30
2022/05/16 06:40:51;;;;;;;0.10;0.10;;;;;;;22.50;42.27;100981.09;5107412;28;20175;-30
2022/05/16 06:43:18;;;;;;;0.10;0.10;;;;;;;22.52;42.21;100995.50;5107788;28;20134;-31
2022/05/16 06:45:44;;;;;;;0.10;0.10;;;;;;;22.53;42.11;101002.69;5108856;28;20107;-31
2022/05/16 06:48:10;;;;;;;0.10;0.10;;;;;;;22.53;42.15;101003.50;5105359;28;20533;-30
2022/05/16 06:50:38;;;;;;;0.10;0.10;;;;;;;22.55;42.05;101006.00;5097417;28;20080;-33
2022/05/16 06:53:04;;;;;;;0.10;0.10;;;;;;;22.56;42.05;101012.38;5100103;28;20130;-31
2022/05/16 06:55:30;;;;;;;0.10;0.10;;;;;;;22.57;41.99;101008.47;5101360;28;20075;-31
2022/05/16 06:57:56;;;;;;;0.10;0.10;;;;;;;22.57;42.01;101014.81;5094346;28;20473;-29
2022/05/16 07:00:22;;;;;;;0.10;0.10;;;;;;;22.58;42.04;101021.19;5079063;28;20051;-30
2022/05/16 07:02:48;;;;;;;0.10;0.10;;;;;;;22.59;41.95;101023.69;5096395;28;20100;-31
2022/05/16 07:05:34;;;;;;;0.10;0.10;;;;;;;22.60;42.00;101030.06;5078794;28;20051;-29
2022/05/16 07:07:59;;;;;;;0.10;0.10;;;;;;;22.61;41.89;101026.97;5106118;28;20130;-31
2022/05/16 07:10:26;;;;;;;0.10;0.10;;;;;;;22.63;42.02;101035.84;5110215;28;20044;-32
2022/05/16 07:12:52;;;;;;;0.10;0.10;;;;;;;22.63;41.88;101035.03;5086672;28;21274;-31
2022/05/16 07:15:19;;;;;;;0.10;0.10;;;;;;;22.65;41.88;101047.47;5106302;28;20142;-31
2022/05/16 07:17:46;;;;;;;0.10;0.10;;;;;;;22.65;41.96;101047.47;5102648;28;20205;-30
2022/05/16 07:20:12;;;;;;;0.10;0.10;;;;;;;22.65;41.86;101044.69;5083422;28;20375;-33
2022/05/16 07:22:45;;;;;;;0.10;0.10;;;;;;;22.67;41.96;101042.44;5098720;28;20477;-30
2022/05/16 07:25:12;;;;;;;0.10;0.10;;;;;;;22.68;41.92;101054.38;5104707;28;20142;-32
2022/05/16 07:28:09;;;;;;;0.10;0.10;;;;;;;22.68;41.92;101054.38;5103041;28;20155;-31
2022/05/16 07:30:39;;;;;;;0.10;0.10;;;;;;;22.68;41.79;101060.75;5090070;28;20127;-31
2022/05/16 07:33:05;;;;;;;0.10;0.10;;;;;;;22.69;41.82;101072.66;5108403;28;20070;-32
2022/05/16 07:35:32;;;;;;;0.10;0.10;;;;;;;22.69;41.84;101067.13;5103949;28;20044;-37
2022/05/16 07:37:58;;;;;;;0.10;0.10;;;;;;;22.69;41.71;101064.34;5086394;28;20040;-33
2022/05/16 07:40:27;;;;;;;0.10;0.10;;;;;;;22.68;41.74;101063.53;5105291;28;20062;-32
2022/05/16 07:42:54;;;;;;;0.10;0.10;;;;;;;22.70;41.76;101065.97;5102026;28;20138;-33
2022/05/16 07:45:21;;;;;;;0.10;0.10;;;;;;;22.70;41.81;101071.53;5086243;28;20048;-32
2022/05/16 07:47:47;;;;;;;0.10;0.10;;;;;;;22.68;41.72;101063.53;5106056;28;20062;-31
2022/05/16 07:50:20;;;;;;;0.10;0.10;;;;;;;22.69;41.79;101069.88;5102594;28;20345;-34
2022/05/16 07:52:48;;;;;;;0.10;0.10;;;;;;;22.68;41.80;101071.84;5100665;28;20458;-32
2022/05/16 07:55:15;;;;;;;0.10;0.10;;;;;;;22.68;41.77;101080.19;5103268;28;20142;-32
2022/05/16 07:57:42;;;;;;;0.10;0.10;;;;;;;22.69;41.91;101092.09;5088375;28;20035;-32
2022/05/16 08:00:08;;;;;;;0.10;0.10;;;;;;;22.68;41.76;101091.28;5103149;28;20102;-33
2022/05/16 08:02:34;;;;;;;0.10;0.10;;;;;;;22.69;41.84;101092.09;5098745;28;20039;-32
2022/05/16 08:05:00;;;;;;;0.10;0.10;;;;;;;22.35;44.83;101103.41;5099942;28;20050;-32
2022/05/16 08:07:26;;;;;;;0.10;0.10;;;;;;;22.56;43.92;101095.63;5102523;28;20047;-31
2022/05/16 08:12:38;;;;;;;0.10;0.10;;;;;;;22.68;43.41;101085.72;5083052;28;20063;-31
2022/05/16 08:15:04;;;;;;;0.10;0.10;;;;;;;22.70;42.98;101085.41;5101391;28;20067;-31
2022/05/16 08:17:30;;;;;;;0.10;0.10;;;;;;;22.71;42.92;101084.28;5099659;28;20146;-34
2022/05/16 08:19:56;;;;;;;0.10;0.10;;;;;;;22.50;45.20;101089.34;5093613;28;20056;-33
2022/05/16 08:22:29;;;;;;;0.10;0.10;;;;;;;22.66;44.34;101081.59;5092351;28;20050;-32
2022/05/16 08:24:55;;;;;;;0.10;0.10;;;;;;;22.72;43.90;101077.63;5098267;28;20063;-33
2022/05/16 08:27:25;;;;;;;0.10;0.10;;;;;;;22.74;43.58;101078.13;5097609;28;20105;-33
2022/05/16 08:29:51;;;;;;;0.10;0.10;;;;;;;22.75;43.40;101069.53;5095895;28;20220;-32
2022/05/16 08:32:19;;;;;;;0.10;0.10;;;;;;;22.77;43.36;101072.81;5084373;28;20131;-32
2022/05/16 08:34:46;;;;;;;0.10;0.10;;;;;;;22.78;43.19;101068.06;5101329;28;20448;-32
2022/05/16 08:40:03;;;;;;;0.10;0.10;;;;;;;22.79;43.10;101067.78;5080190;28;20047;-32
2022/05/16 08:45:41;;;;;;;0.10;0.10;;;;;;;22.86;42.81;101086.84;5153358;27;20373;-29
2022/05/16 08:48:14;;;;;;;0.10;0.10;;;;;;;22.89;42.84;101096.53;5150781;27;21177;-34
2022/05/16 08:50:45;;;;;;;0.10;0.10;;;;;;;22.86;42.82;101088.78;5154984;27;20179;-31
2022/05/16 08:53:13;;;;;;;0.10;0.10;;;;;;;22.86;42.82;101095.16;5149056;27;20142;-28
2022/05/16 08:55:43;;;;;;;0.10;0.10;;;;;;;22.65;45.15;101105.75;5136929;27;20158;-31
2022/05/16 08:58:12;;;;;;;0.10;0.10;;;;;;;22.78;44.65;101106.94;5136113;27;20475;-32
2022/05/16 09:00:47;;;;;;;0.10;0.10;;;;;;;22.85;44.05;101095.47;5139529;27;20084;-32
2022/05/16 09:03:17;;;;;;;0.10;0.10;;;;;;;22.88;43.57;101094.84;5158858;27;20077;-34
2022/05/16 09:05:48;;;;;;;0.10;0.10;;;;;;;22.90;43.55;101090.69;5156593;27;20466;-31
2022/05/16 09:08:23;;;;;;;0.10;0.10;;;;;;;22.91;43.44;101094.28;5136761;27;20845;-31
2022/05/16 09:10:59;;;;;;;0.10;0.10;;;;;;;22.93;43.43;101100.38;5155259;27;20880;-31
2022/05/16 09:13:42;;;;;;;0.10;0.10;;;;;;;22.94;43.19;101088.13;5156249;27;20523;-32
2022/05/16 09:19:29;;;;;;;0.10;0.10;;;;;;;22.95;43.17;101081.44;5152013;27;20200;-32
2022/05/16 09:22:22;;;;;;;0.10;0.10;;;;;;;22.95;43.20;101090.59;5135066;27;20240;-32
2022/05/16 09:30:16;;;;;;;0.10;0.10;;;;;;;22.99;42.94;101085.28;5121854;27;20090;-29
2022/05/16 09:32:53;;;;;;;0.10;0.10;;;;;;;23.00;42.98;101084.97;5132784;27;20048;-30
2022/05/16 09:35:28;;;;;;;0.10;0.10;;;;;;;23.00;42.88;101087.75;5130014;27;20125;-30
2022/05/16 09:37:56;;;;;;;0.10;0.10;;;;;;;23.01;42.98;101081.06;5128845;27;20130;-29
2022/05/16 09:40:24;;;;;;;0.10;0.10;;;;;;;23.02;42.92;101079.94;5126014;27;20074;-30
2022/05/16 09:42:52;;;;;;;0.10;0.10;;;;;;;23.03;42.87;101078.00;5122324;27;20387;-30
2022/05/16 09:45:28;;;;;;;0.10;0.10;;;;;;;23.02;42.91;101082.72;5126780;27;20039;-30
2022/05/16 09:47:54;;;;;;;0.10;0.10;;;;;;;23.04;42.88;101085.19;5126838;27;20059;-30
2022/05/16 09:50:24;;;;;;;0.10;0.10;;;;;;;23.06;42.99;101079.31;5124900;27;20099;-30
2022/05/16 09:53:09;;;;;;;0.10;0.10;;;;;;;23.06;42.94;101073.75;5118789;27;20125;-33
2022/05/16 09:58:29;;;;;;;0.10;0.10;;;;;;;23.06;42.62;101082.09;5157527;27;20212;-30
2022/05/16 10:01:00;;;;;;;0.10;0.10;;;;;;;23.05;42.76;101089.59;5127231;27;20035;-29
2022/05/16 10:03:35;;;;;;;0.17;0.17;;;;;;;23.06;42.81;101091.28;5136337;27;20087;-28
2022/05/16 10:06:08;;;;;;;0.10;0.10;;;;;;;23.06;42.68;101091.28;5135277;27;20172;-29
2022/05/16 10:11:24;;;;;;;0.10;0.10;;;;;;;22.95;44.79;101090.59;5146468;27;20214;-32
2022/05/16 10:13:50;;;;;;;0.10;0.10;;;;;;;23.03;44.36;101094.66;5141425;27;20892;-34
2022/05/16 10:16:17;;;;;;;0.10;0.10;;;;;;;23.07;44.10;101090.16;5136238;27;20041;-31
2022/05/16 10:18:47;;;;;;;0.10;0.10;;;;;;;23.08;43.97;101094.56;5135474;27;20039;-33
2022/05/16 10:21:24;;;;;;;0.10;0.10;;;;;;;23.09;43.73;101089.81;5139641;27;20070;-32
2022/05/16 10:23:50;;;;;;;0.10;0.10;;;;;;;23.09;43.49;101098.16;5140583;27;20439;-30
2022/05/16 10:26:19;;;;;;;0.10;0.10;;;;;;;23.10;43.41;101097.03;5132983;27;20378;-31
2022/05/16 10:28:51;;;;;;;0.10;0.10;;;;;;;23.10;43.25;101092.31;5126089;27;20474;-31
2022/05/16 10:34:26;;;;;;;0.10;0.10;;;;;;;23.11;43.36;101093.97;5126450;27;20100;-33
2022/05/16 10:36:54;;;;;;;0.10;0.10;;;;;;;23.11;43.33;101093.16;5131611;27;20526;-31
2022/05/16 10:39:24;;;;;;;0.05;0.05;;;;;;;23.13;43.30;101090.88;5135718;27;20148;-32
2022/05/16 10:41:57;;;;;;;0.00;0.00;;;;;;;23.13;43.09;101093.66;5136369;27;20126;-33
2022/05/16 10:45:03;;;;;;;0.10;0.10;;;;;;;23.13;43.17;101096.44;5134396;27;20129;-31
2022/05/16 10:47:31;;;;;;;0.10;0.10;;;;;;;23.13;43.17;101090.88;5104950;27;20519;-33
2022/05/16 10:50:03;;;;;;;;;;;;;;;23.14;43.07;101098.06;5125186;27;20714;-32
2022/05/16 10:52:39;;;;;;;0.10;0.10;;;;;;;23.14;43.14;101098.06;5136128;27;20013;-32
2022/05/16 10:55:05;;;;;;;0.10;0.10;;;;;;;23.14;43.12;101095.28;5135702;27;20148;-31
2022/05/16 10:57:58;;;;;;;0.10;0.10;;;;;;;23.15;42.99;101096.97;5136104;27;20497;-31
2022/05/16 11:00:33;;;;;;;0.10;0.10;;;;;;;23.16;42.95;101093.06;5123299;27;20117;-32
2022/05/16 11:03:13;;;;;;;0.10;0.10;;;;;;;23.17;43.00;101097.47;5115600;27;20130;-32
2022/05/16 11:06:14;;;;;;;0.10;0.10;;;;;;;23.19;42.97;101086.91;5125365;27;20059;-31
2022/05/16 11:09:20;;;;;;;0.10;0.10;;;;;;;23.26;43.90;101082.56;5122351;27;20075;-31
2022/05/16 11:12:01;;;;;;;0.10;0.10;;;;;;;23.29;43.73;101086.72;5124540;27;20062;-30
2022/05/16 11:14:51;;;;;;;0.10;0.10;;;;;;;23.28;43.62;101096.19;5134026;27;20133;-31
2022/05/16 11:17:30;;;;;;;0.10;0.10;;;;;;;23.27;43.51;101089.81;5120493;27;20137;-30
2022/05/16 11:22:41;;;;;;;0.10;0.10;;;;;;;23.28;43.35;101085.06;5164209;27;20210;-31
2022/05/16 11:25:17;;;;;;;0.10;0.10;;;;;;;23.28;43.36;101088.66;5150091;27;20130;-31
2022/05/16 11:28:04;;;;;;;0.10;0.10;;;;;;;23.29;43.24;101086.72;5149991;27;20133;-31
2022/05/16 11:33:45;;;;;;;0.10;0.10;;;;;;;23.30;43.20;101113.34;5108085;27;20130;-34
2022/05/16 11:36:50;;;;;;;0.10;0.10;;;;;;;23.30;43.28;101113.34;5097214;28;20131;-31
2022/05/16 11:39:22;;;;;;;0.10;0.10;;;;;;;23.30;43.17;101102.25;5085981;27;20638;-32
2022/05/16 11:42:00;;;;;;;0.10;0.10;;;;;;;23.30;43.17;101107.81;5104140;28;20591;-32
2022/05/16 11:44:30;;;;;;;0.10;0.10;;;;;;;23.31;43.17;101097.50;5097750;28;20067;-31
2022/05/16 11:47:18;;;;;;;0.10;0.10;;;;;;;23.33;43.09;101107.19;5070759;28;20133;-33
2022/05/16 11:50:11;;;;;;;0.10;0.10;;;;;;;23.32;43.07;101091.66;5091043;28;20075;-31
2022/05/16 11:53:11;;;;;;;0.10;0.10;;;;;;;23.32;43.07;101088.06;5090006;28;20067;-33
2022/05/16 12:01:34;;;;;;;0.10;0.10;;;;;;;23.33;43.08;101098.03;5083837;28;20131;-32
2022/05/16 12:04:14;;;;;;;0.10;0.10;;;;;;;23.35;43.05;101081.88;5093558;28;20138;-32
2022/05/16 12:06:43;;;;;;;0.10;0.10;;;;;;;23.34;43.16;101081.06;5088100;28;20055;-31
2022/05/16 12:09:20;;;;;;;0.10;0.10;;;;;;;23.35;43.13;101079.91;5091760;28;20075;-31
2022/05/16 12:11:53;;;;;;;0.00;0.00;;;;;;;23.35;43.12;101082.69;5092150;28;20075;-32
2022/05/16 12:14:32;;;;;;;0.10;0.10;;;;;;;23.36;43.10;101075.19;5069758;28;20059;-32
2022/05/16 12:19:53;;;;;;;0.10;0.10;;;;;;;23.34;43.07;101078.28;5168917;27;20214;-29
2022/05/16 12:22:42;;;;;;;0.10;0.10;;;;;;;23.36;43.12;101076.03;5138059;27;20133;-29
2022/05/16 12:25:10;;;;;;;0.10;0.10;;;;;;;23.36;43.16;101092.72;5147552;27;20588;-29
2022/05/16 12:27:38;;;;;;;;;;;;;;;23.35;43.10;101085.47;5160222;27;20046;-30
2022/05/16 12:30:23;;;;;;;0.10;0.10;;;;;;;23.33;43.26;101079.41;5157516;27;20015;-29